sensor_id;sensor_type;location;lat;lon;timestamp;noise_LAeq;noise_LA_min;noise_LA_max;noise_LA01;noise_LA95
66747;Laerm;53658;50.742;10.864;2023-04-24T00:00:20;39.23;34.31;53.57;;
66747;Laerm;53658;50.742;10.864;2023-04-24T00:02:46;39.17;35.04;53.57;;
66747;Laerm;53658;50.742;10.864;2023-04-24T00:05:15;39.13;33.90;52.24;;
66747;Laerm;53658;50.742;10.864;2023-04-24T00:07:42;39.11;34.69;44.19;;
66747;Laerm;53658;50.742;10.864;2023-04-24T00:10:08;39.13;34.31;53.19;;
66747;Laerm;53658;50.742;10.864;2023-04-24T00:12:34;39.20;35.04;49.00;;
66747;Laerm;53658;50.742;10.864;2023-04-24T00:15:00;38.98;33.90;46.45;;
66747;Laerm;53658;50.742;10.864;2023-04-24T00:17:27;39.00;32.35;42.71;;
66747;Laerm;53658;50.742;10.864;2023-04-24T00:19:53;38.98;31.68;47.91;;
66747;Laerm;53658;50.742;10.864;2023-04-24T00:22:26;38.87;34.69;47.59;;
66747;Laerm;53658;50.742;10.864;2023-04-24T00:24:52;38.90;34.31;41.75;;
66747;Laerm;53658;50.742;10.864;2023-04-24T00:27:18;38.98;34.31;45.01;;
66747;Laerm;53658;50.742;10.864;2023-04-24T00:29:44;38.88;34.31;44.23;;
66747;Laerm;53658;50.742;10.864;2023-04-24T00:32:10;38.94;34.69;43.09;;
66747;Laerm;53658;50.742;10.864;2023-04-24T00:34:36;38.95;34.31;41.38;;
66747;Laerm;53658;50.742;10.864;2023-04-24T00:37:02;38.94;34.31;41.68;;
66747;Laerm;53658;50.742;10.864;2023-04-24T00:39:28;39.02;34.31;41.53;;
66747;Laerm;53658;50.742;10.864;2023-04-24T00:41:54;39.07;34.69;42.82;;
66747;Laerm;53658;50.742;10.864;2023-04-24T00:44:22;39.03;33.90;41.46;;
66747;Laerm;53658;50.742;10.864;2023-04-24T00:46:49;38.94;34.69;41.61;;
66747;Laerm;53658;50.742;10.864;2023-04-24T00:49:22;38.84;34.31;41.82;;
66747;Laerm;53658;50.742;10.864;2023-04-24T00:51:48;38.86;34.69;41.61;;
66747;Laerm;53658;50.742;10.864;2023-04-24T00:54:15;38.87;33.90;43.44;;
66747;Laerm;53658;50.742;10.864;2023-04-24T00:56:42;38.97;35.04;43.19;;
66747;Laerm;53658;50.742;10.864;2023-04-24T00:59:10;38.88;34.31;43.09;;
66747;Laerm;53658;50.742;10.864;2023-04-24T01:01:37;38.84;33.44;42.09;;
66747;Laerm;53658;50.742;10.864;2023-04-24T01:04:04;38.84;33.90;41.53;;
66747;Laerm;53658;50.742;10.864;2023-04-24T01:06:29;38.79;34.69;43.39;;
66747;Laerm;53658;50.742;10.864;2023-04-24T01:08:59;38.80;33.90;41.46;;
66747;Laerm;53658;50.742;10.864;2023-04-24T01:11:26;38.90;33.44;41.75;;
66747;Laerm;53658;50.742;10.864;2023-04-24T01:13:52;38.83;34.69;41.68;;
66747;Laerm;53658;50.742;10.864;2023-04-24T01:16:18;38.80;33.90;45.83;;
66747;Laerm;53658;50.742;10.864;2023-04-24T01:18:46;38.73;34.31;41.22;;
66747;Laerm;53658;50.742;10.864;2023-04-24T01:21:15;38.82;34.31;42.03;;
66747;Laerm;53658;50.742;10.864;2023-04-24T01:23:45;38.78;34.31;43.49;;
66747;Laerm;53658;50.742;10.864;2023-04-24T01:26:13;38.91;34.69;41.68;;
66747;Laerm;53658;50.742;10.864;2023-04-24T01:28:39;38.92;34.69;41.75;;
66747;Laerm;53658;50.742;10.864;2023-04-24T01:31:05;38.84;34.69;41.46;;
66747;Laerm;53658;50.742;10.864;2023-04-24T01:33:31;39.01;34.31;50.63;;
66747;Laerm;53658;50.742;10.864;2023-04-24T01:35:58;38.95;34.31;48.44;;
66747;Laerm;53658;50.742;10.864;2023-04-24T01:38:24;38.99;34.31;41.82;;
66747;Laerm;53658;50.742;10.864;2023-04-24T01:40:51;39.07;35.04;41.89;;
66747;Laerm;53658;50.742;10.864;2023-04-24T01:43:17;39.17;35.04;46.71;;
66747;Laerm;53658;50.742;10.864;2023-04-24T01:45:44;39.23;35.01;43.24;;
66747;Laerm;53658;50.742;10.864;2023-04-24T01:48:11;39.16;35.04;41.61;;
66747;Laerm;53658;50.742;10.864;2023-04-24T01:50:37;39.07;35.04;44.03;;
66747;Laerm;53658;50.742;10.864;2023-04-24T01:53:03;39.02;34.69;43.14;;
66747;Laerm;53658;50.742;10.864;2023-04-24T01:55:29;39.04;34.31;45.86;;
66747;Laerm;53658;50.742;10.864;2023-04-24T01:57:56;39.00;33.44;42.82;;
66747;Laerm;53658;50.742;10.864;2023-04-24T02:00:23;39.05;35.04;42.22;;
66747;Laerm;53658;50.742;10.864;2023-04-24T02:02:51;39.06;34.69;48.99;;
66747;Laerm;53658;50.742;10.864;2023-04-24T02:05:17;38.98;35.04;44.31;;
66747;Laerm;53658;50.742;10.864;2023-04-24T02:07:43;38.90;34.31;42.71;;
66747;Laerm;53658;50.742;10.864;2023-04-24T02:10:10;38.93;34.69;41.46;;
66747;Laerm;53658;50.742;10.864;2023-04-24T02:12:36;38.95;34.69;41.46;;
66747;Laerm;53658;50.742;10.864;2023-04-24T02:15:02;38.79;34.31;42.53;;
66747;Laerm;53658;50.742;10.864;2023-04-24T02:17:28;39.00;31.68;46.28;;
66747;Laerm;53658;50.742;10.864;2023-04-24T02:19:54;39.22;34.31;47.00;;
66747;Laerm;53658;50.742;10.864;2023-04-24T02:22:20;38.68;35.04;47.48;;
66747;Laerm;53658;50.742;10.864;2023-04-24T02:24:46;39.01;34.69;49.52;;
66747;Laerm;53658;50.742;10.864;2023-04-24T02:27:14;38.90;34.69;46.50;;
66747;Laerm;53658;50.742;10.864;2023-04-24T02:29:40;38.49;34.69;48.16;;
66747;Laerm;53658;50.742;10.864;2023-04-24T02:32:06;38.76;35.04;49.91;;
66747;Laerm;53658;50.742;10.864;2023-04-24T02:34:32;40.69;35.36;53.06;;
66747;Laerm;53658;50.742;10.864;2023-04-24T02:36:59;39.08;35.94;44.76;;
66747;Laerm;53658;50.742;10.864;2023-04-24T02:39:25;39.22;35.94;42.59;;
66747;Laerm;53658;50.742;10.864;2023-04-24T02:41:51;39.36;36.69;48.84;;
66747;Laerm;53658;50.742;10.864;2023-04-24T02:44:17;39.31;36.45;43.58;;
66747;Laerm;53658;50.742;10.864;2023-04-24T02:46:43;39.32;36.91;43.19;;
66747;Laerm;53658;50.742;10.864;2023-04-24T02:49:09;39.37;36.20;43.90;;
66747;Laerm;53658;50.742;10.864;2023-04-24T02:51:37;39.46;36.69;48.05;;
66747;Laerm;53658;50.742;10.864;2023-04-24T02:54:09;39.49;36.91;45.17;;
66747;Laerm;53658;50.742;10.864;2023-04-24T02:56:35;39.42;36.69;45.99;;
66747;Laerm;53658;50.742;10.864;2023-04-24T02:59:02;39.48;36.91;43.39;;
66747;Laerm;53658;50.742;10.864;2023-04-24T03:01:29;39.47;36.91;44.31;;
66747;Laerm;53658;50.742;10.864;2023-04-24T03:03:55;39.44;37.12;41.75;;
66747;Laerm;53658;50.742;10.864;2023-04-24T03:06:21;39.67;36.91;46.77;;
66747;Laerm;53658;50.742;10.864;2023-04-24T03:08:47;39.59;36.69;43.49;;
66747;Laerm;53658;50.742;10.864;2023-04-24T03:11:14;39.79;36.91;44.80;;
66747;Laerm;53658;50.742;10.864;2023-04-24T03:13:41;39.68;37.12;44.15;;
66747;Laerm;53658;50.742;10.864;2023-04-24T03:16:07;39.59;36.91;43.44;;
66747;Laerm;53658;50.742;10.864;2023-04-24T03:18:32;39.80;37.12;47.51;;
66747;Laerm;53658;50.742;10.864;2023-04-24T03:20:58;39.66;37.12;46.07;;
66747;Laerm;53658;50.742;10.864;2023-04-24T03:23:25;39.58;37.12;43.58;;
66747;Laerm;53658;50.742;10.864;2023-04-24T03:25:51;39.55;37.32;43.54;;
66747;Laerm;53658;50.742;10.864;2023-04-24T03:28:18;39.57;37.32;42.41;;
66747;Laerm;53658;50.742;10.864;2023-04-24T03:30:52;39.57;37.32;43.68;;
66747;Laerm;53658;50.742;10.864;2023-04-24T03:33:19;39.57;37.12;46.13;;
66747;Laerm;53658;50.742;10.864;2023-04-24T03:35:55;39.59;36.91;44.15;;
66747;Laerm;53658;50.742;10.864;2023-04-24T03:38:21;39.84;36.91;46.89;;
66747;Laerm;53658;50.742;10.864;2023-04-24T03:41:05;39.81;37.32;47.36;;
66747;Laerm;53658;50.742;10.864;2023-04-24T03:43:39;39.56;37.12;42.71;;
66747;Laerm;53658;50.742;10.864;2023-04-24T03:46:06;39.72;37.32;43.54;;
66747;Laerm;53658;50.742;10.864;2023-04-24T03:48:38;39.63;37.32;42.71;;
66747;Laerm;53658;50.742;10.864;2023-04-24T03:51:05;39.69;36.91;42.71;;
66747;Laerm;53658;50.742;10.864;2023-04-24T03:53:33;39.78;37.32;45.07;;
66747;Laerm;53658;50.742;10.864;2023-04-24T03:56:00;39.63;36.91;42.47;;
66747;Laerm;53658;50.742;10.864;2023-04-24T03:58:26;40.09;36.91;51.09;;
66747;Laerm;53658;50.742;10.864;2023-04-24T04:00:53;39.62;36.45;45.86;;
66747;Laerm;53658;50.742;10.864;2023-04-24T04:03:38;39.53;37.12;41.30;;
66747;Laerm;53658;50.742;10.864;2023-04-24T04:06:04;39.59;37.12;43.19;;
66747;Laerm;53658;50.742;10.864;2023-04-24T04:08:30;39.54;37.32;42.35;;
66747;Laerm;53658;50.742;10.864;2023-04-24T04:10:57;39.52;37.17;42.35;;
66747;Laerm;53658;50.742;10.864;2023-04-24T04:13:23;39.56;37.52;41.46;;
66747;Laerm;53658;50.742;10.864;2023-04-24T04:15:49;39.53;36.20;41.46;;
66747;Laerm;53658;50.742;10.864;2023-04-24T04:18:16;39.64;37.12;43.63;;
66747;Laerm;53658;50.742;10.864;2023-04-24T04:20:42;39.79;37.12;51.45;;
66747;Laerm;53658;50.742;10.864;2023-04-24T04:23:11;39.59;36.69;42.65;;
66747;Laerm;53658;50.742;10.864;2023-04-24T04:25:52;39.54;37.12;41.82;;
66747;Laerm;53658;50.742;10.864;2023-04-24T04:28:22;39.54;37.32;42.29;;
66747;Laerm;53658;50.742;10.864;2023-04-24T04:30:48;39.58;37.32;42.47;;
66747;Laerm;53658;50.742;10.864;2023-04-24T04:33:15;39.60;36.91;46.50;;
66747;Laerm;53658;50.742;10.864;2023-04-24T04:35:41;39.69;36.91;43.29;;
66747;Laerm;53658;50.742;10.864;2023-04-24T04:38:07;39.89;37.52;48.80;;
66747;Laerm;53658;50.742;10.864;2023-04-24T04:40:43;39.69;37.52;43.90;;
66747;Laerm;53658;50.742;10.864;2023-04-24T04:43:11;39.76;36.69;45.14;;
66747;Laerm;53658;50.742;10.864;2023-04-24T04:45:44;39.64;36.91;44.11;;
66747;Laerm;53658;50.742;10.864;2023-04-24T04:48:43;39.68;37.32;44.27;;
66747;Laerm;53658;50.742;10.864;2023-04-24T04:51:09;39.56;37.52;41.89;;
66747;Laerm;53658;50.742;10.864;2023-04-24T04:53:36;39.57;37.32;41.38;;
66747;Laerm;53658;50.742;10.864;2023-04-24T04:56:02;39.59;36.69;41.68;;
66747;Laerm;53658;50.742;10.864;2023-04-24T04:58:35;39.64;37.12;42.88;;
66747;Laerm;53658;50.742;10.864;2023-04-24T05:01:02;39.59;36.20;42.47;;
66747;Laerm;53658;50.742;10.864;2023-04-24T05:03:33;39.74;36.69;44.65;;
66747;Laerm;53658;50.742;10.864;2023-04-24T05:06:04;39.67;37.32;44.76;;
66747;Laerm;53658;50.742;10.864;2023-04-24T05:08:33;39.60;37.32;42.22;;
66747;Laerm;53658;50.742;10.864;2023-04-24T05:10:59;39.59;37.12;42.09;;
66747;Laerm;53658;50.742;10.864;2023-04-24T05:13:27;39.58;37.32;41.82;;
66747;Laerm;53658;50.742;10.864;2023-04-24T05:15:54;39.70;37.12;46.10;;
66747;Laerm;53658;50.742;10.864;2023-04-24T05:18:20;39.67;37.52;45.14;;
66747;Laerm;53658;50.742;10.864;2023-04-24T05:20:46;39.62;37.32;44.07;;
66747;Laerm;53658;50.742;10.864;2023-04-24T05:23:12;39.56;36.45;41.68;;
66747;Laerm;53658;50.742;10.864;2023-04-24T05:25:40;39.76;37.12;46.93;;
66747;Laerm;53658;50.742;10.864;2023-04-24T05:28:10;39.70;37.32;43.29;;
66747;Laerm;53658;50.742;10.864;2023-04-24T05:30:37;39.70;36.91;45.66;;
66747;Laerm;53658;50.742;10.864;2023-04-24T05:33:03;39.60;37.52;41.46;;
66747;Laerm;53658;50.742;10.864;2023-04-24T05:35:32;39.89;37.12;45.17;;
66747;Laerm;53658;50.742;10.864;2023-04-24T05:37:57;40.34;36.45;48.16;;
66747;Laerm;53658;50.742;10.864;2023-04-24T05:40:23;39.60;37.12;41.75;;
66747;Laerm;53658;50.742;10.864;2023-04-24T05:42:49;39.62;37.32;42.53;;
66747;Laerm;53658;50.742;10.864;2023-04-24T05:45:15;39.71;37.32;44.15;;
66747;Laerm;53658;50.742;10.864;2023-04-24T05:47:43;40.36;36.91;55.05;;
66747;Laerm;53658;50.742;10.864;2023-04-24T05:50:11;39.64;37.17;42.76;;
66747;Laerm;53658;50.742;10.864;2023-04-24T05:52:37;39.63;37.12;42.93;;
66747;Laerm;53658;50.742;10.864;2023-04-24T05:55:11;39.60;37.12;41.53;;
66747;Laerm;53658;50.742;10.864;2023-04-24T05:57:39;39.63;36.91;41.46;;
66747;Laerm;53658;50.742;10.864;2023-04-24T06:00:06;39.60;37.32;41.53;;
66747;Laerm;53658;50.742;10.864;2023-04-24T06:02:39;39.66;36.98;45.45;;
66747;Laerm;53658;50.742;10.864;2023-04-24T06:05:08;39.67;37.12;43.54;;
66747;Laerm;53658;50.742;10.864;2023-04-24T06:07:34;39.59;37.32;42.29;;
66747;Laerm;53658;50.742;10.864;2023-04-24T06:10:03;39.61;37.12;41.30;;
66747;Laerm;53658;50.742;10.864;2023-04-24T06:12:36;39.61;37.52;41.46;;
66747;Laerm;53658;50.742;10.864;2023-04-24T06:15:07;39.61;36.91;41.68;;
66747;Laerm;53658;50.742;10.864;2023-04-24T06:17:49;39.62;37.32;41.53;;
66747;Laerm;53658;50.742;10.864;2023-04-24T06:20:16;39.61;37.12;41.22;;
66747;Laerm;53658;50.742;10.864;2023-04-24T06:22:42;39.80;36.91;49.71;;
66747;Laerm;53658;50.742;10.864;2023-04-24T06:25:10;39.63;36.91;41.82;;
66747;Laerm;53658;50.742;10.864;2023-04-24T06:27:36;40.09;37.12;47.06;;
66747;Laerm;53658;50.742;10.864;2023-04-24T06:30:02;39.61;36.91;42.24;;
66747;Laerm;53658;50.742;10.864;2023-04-24T06:32:28;39.60;37.32;41.33;;
66747;Laerm;53658;50.742;10.864;2023-04-24T06:34:54;39.63;36.45;41.53;;
66747;Laerm;53658;50.742;10.864;2023-04-24T06:37:21;39.63;37.32;41.61;;
66747;Laerm;53658;50.742;10.864;2023-04-24T06:39:47;39.71;37.12;44.27;;
66747;Laerm;53658;50.742;10.864;2023-04-24T06:42:13;39.84;37.32;45.39;;
66747;Laerm;53658;50.742;10.864;2023-04-24T06:44:41;39.65;37.32;43.54;;
66747;Laerm;53658;50.742;10.864;2023-04-24T06:47:08;39.60;36.91;41.53;;
66747;Laerm;53658;50.742;10.864;2023-04-24T06:49:37;39.87;37.52;50.15;;
66747;Laerm;53658;50.742;10.864;2023-04-24T06:52:03;39.67;36.91;42.88;;
66747;Laerm;53658;50.742;10.864;2023-04-24T06:54:31;39.61;36.69;41.75;;
66747;Laerm;53658;50.742;10.864;2023-04-24T06:56:59;39.63;36.91;41.46;;
66747;Laerm;53658;50.742;10.864;2023-04-24T06:59:27;39.62;37.32;41.30;;
66747;Laerm;53658;50.742;10.864;2023-04-24T07:01:55;39.63;37.32;41.46;;
66747;Laerm;53658;50.742;10.864;2023-04-24T07:04:21;39.64;37.32;42.29;;
66747;Laerm;53658;50.742;10.864;2023-04-24T07:06:47;39.60;36.91;41.53;;
66747;Laerm;53658;50.742;10.864;2023-04-24T07:09:15;39.61;36.45;41.46;;
66747;Laerm;53658;50.742;10.864;2023-04-24T07:11:41;39.64;37.32;41.30;;
66747;Laerm;53658;50.742;10.864;2023-04-24T07:14:07;40.17;37.32;48.05;;
66747;Laerm;53658;50.742;10.864;2023-04-24T07:16:34;40.07;38.05;43.24;;
66747;Laerm;53658;50.742;10.864;2023-04-24T07:19:00;40.03;38.18;44.15;;
66747;Laerm;53658;50.742;10.864;2023-04-24T07:21:26;40.02;37.52;43.39;;
66747;Laerm;53658;50.742;10.864;2023-04-24T07:23:52;39.99;37.70;41.53;;
66747;Laerm;53658;50.742;10.864;2023-04-24T07:26:20;40.08;37.88;41.68;;
66747;Laerm;53658;50.742;10.864;2023-04-24T07:28:46;40.17;38.05;41.82;;
66747;Laerm;53658;50.742;10.864;2023-04-24T07:31:12;40.34;38.37;44.39;;
66747;Laerm;53658;50.742;10.864;2023-04-24T07:33:38;40.10;37.52;41.82;;
66747;Laerm;53658;50.742;10.864;2023-04-24T07:36:04;39.97;37.12;41.53;;
66747;Laerm;53658;50.742;10.864;2023-04-24T07:38:30;40.02;38.05;46.95;;
66747;Laerm;53658;50.742;10.864;2023-04-24T07:40:56;39.95;37.88;41.53;;
66747;Laerm;53658;50.742;10.864;2023-04-24T07:43:23;39.94;37.32;41.75;;
66747;Laerm;53658;50.742;10.864;2023-04-24T07:45:53;40.11;38.05;41.68;;
66747;Laerm;53658;50.742;10.864;2023-04-24T07:48:19;40.18;38.05;41.61;;
66747;Laerm;53658;50.742;10.864;2023-04-24T07:50:47;40.27;38.37;41.96;;
66747;Laerm;53658;50.742;10.864;2023-04-24T07:53:12;40.32;38.05;42.09;;
66747;Laerm;53658;50.742;10.864;2023-04-24T07:55:38;40.27;36.91;42.29;;
66747;Laerm;53658;50.742;10.864;2023-04-24T07:58:04;40.08;37.32;41.82;;
66747;Laerm;53658;50.742;10.864;2023-04-24T08:00:30;39.84;36.69;42.88;;
66747;Laerm;53658;50.742;10.864;2023-04-24T08:02:56;40.06;37.12;46.82;;
66747;Laerm;53658;50.742;10.864;2023-04-24T08:05:22;39.88;36.20;44.82;;
66747;Laerm;53658;50.742;10.864;2023-04-24T08:07:48;40.69;35.66;55.12;;
66747;Laerm;53658;50.742;10.864;2023-04-24T08:10:15;39.52;36.45;43.46;;
66747;Laerm;53658;50.742;10.864;2023-04-24T08:12:41;40.01;36.20;50.12;;
66747;Laerm;53658;50.742;10.864;2023-04-24T08:15:08;39.90;37.12;46.25;;
66747;Laerm;53658;50.742;10.864;2023-04-24T08:17:35;39.58;35.36;47.10;;
66747;Laerm;53658;50.742;10.864;2023-04-24T08:20:02;39.50;35.94;47.18;;
66747;Laerm;53658;50.742;10.864;2023-04-24T08:22:30;38.99;35.36;42.93;;
66747;Laerm;53658;50.742;10.864;2023-04-24T08:24:58;39.24;35.94;45.66;;
66747;Laerm;53658;50.742;10.864;2023-04-24T08:27:25;39.46;35.94;47.14;;
66747;Laerm;53658;50.742;10.864;2023-04-24T08:29:53;39.86;36.45;49.64;;
66747;Laerm;53658;50.742;10.864;2023-04-24T08:32:19;39.01;35.04;42.47;;
66747;Laerm;53658;50.742;10.864;2023-04-24T08:34:45;38.63;34.31;42.53;;
66747;Laerm;53658;50.742;10.864;2023-04-24T08:37:11;39.80;33.44;52.42;;
66747;Laerm;53658;50.742;10.864;2023-04-24T08:39:37;38.46;33.90;43.72;;
66747;Laerm;53658;50.742;10.864;2023-04-24T08:42:05;38.34;32.93;45.04;;
66747;Laerm;53658;50.742;10.864;2023-04-24T08:44:35;38.46;33.44;48.70;;
66747;Laerm;53658;50.742;10.864;2023-04-24T08:47:02;41.63;30.89;63.60;;
66747;Laerm;53658;50.742;10.864;2023-04-24T08:49:28;38.15;32.35;43.34;;
66747;Laerm;53658;50.742;10.864;2023-04-24T08:51:54;38.30;31.68;44.54;;
66747;Laerm;53658;50.742;10.864;2023-04-24T08:54:21;38.15;28.67;44.73;;
66747;Laerm;53658;50.742;10.864;2023-04-24T08:56:48;38.91;32.35;48.39;;
66747;Laerm;53658;50.742;10.864;2023-04-24T08:59:15;38.23;31.68;44.62;;
66747;Laerm;53658;50.742;10.864;2023-04-24T09:01:42;41.09;32.93;62.75;;
66747;Laerm;53658;50.742;10.864;2023-04-24T09:04:12;38.32;33.44;43.99;;
66747;Laerm;53658;50.742;10.864;2023-04-24T09:06:42;37.94;33.44;40.62;;
66747;Laerm;53658;50.742;10.864;2023-04-24T09:09:08;38.21;32.35;45.72;;
66747;Laerm;53658;50.742;10.864;2023-04-24T09:11:36;39.69;33.90;52.59;;
66747;Laerm;53658;50.742;10.864;2023-04-24T09:14:03;38.81;32.93;53.74;;
66747;Laerm;53658;50.742;10.864;2023-04-24T09:16:29;38.92;33.44;55.33;;
66747;Laerm;53658;50.742;10.864;2023-04-24T09:18:55;38.85;31.68;51.76;;
66747;Laerm;53658;50.742;10.864;2023-04-24T09:21:22;37.95;32.93;44.03;;
66747;Laerm;53658;50.742;10.864;2023-04-24T09:23:58;38.16;32.93;45.27;;
66747;Laerm;53658;50.742;10.864;2023-04-24T09:26:25;38.96;32.93;52.86;;
66747;Laerm;53658;50.742;10.864;2023-04-24T09:28:51;37.96;31.68;43.81;;
66747;Laerm;53658;50.742;10.864;2023-04-24T09:31:19;38.40;32.93;51.15;;
66747;Laerm;53658;50.742;10.864;2023-04-24T09:34:01;38.46;32.35;52.97;;
66747;Laerm;53658;50.742;10.864;2023-04-24T09:36:39;38.30;32.93;51.24;;
66747;Laerm;53658;50.742;10.864;2023-04-24T09:39:14;37.95;32.35;49.55;;
66747;Laerm;53658;50.742;10.864;2023-04-24T09:44:17;38.71;32.00;51.18;;
66747;Laerm;53658;50.742;10.864;2023-04-24T09:46:46;44.97;29.92;63.07;;
66747;Laerm;53658;50.742;10.864;2023-04-24T09:49:21;38.61;29.92;48.87;;
66747;Laerm;53658;50.742;10.864;2023-04-24T09:51:47;38.38;29.92;49.48;;
66747;Laerm;53658;50.742;10.864;2023-04-24T09:54:18;38.38;28.67;50.67;;
66747;Laerm;53658;50.742;10.864;2023-04-24T09:56:48;37.89;30.89;45.54;;
66747;Laerm;53658;50.742;10.864;2023-04-24T09:59:15;37.27;30.89;42.76;;
66747;Laerm;53658;50.742;10.864;2023-04-24T10:01:42;37.14;29.92;42.41;;
66747;Laerm;53658;50.742;10.864;2023-04-24T10:04:24;38.70;28.67;47.88;;
66747;Laerm;53658;50.742;10.864;2023-04-24T10:06:52;40.36;29.92;57.11;;
66747;Laerm;53658;50.742;10.864;2023-04-24T10:09:20;44.03;31.68;61.98;;
66747;Laerm;53658;50.742;10.864;2023-04-24T10:11:49;40.28;32.35;64.03;;
66747;Laerm;53658;50.742;10.864;2023-04-24T10:14:23;38.26;31.68;45.80;;
66747;Laerm;53658;50.742;10.864;2023-04-24T10:16:50;38.62;32.00;55.07;;
66747;Laerm;53658;50.742;10.864;2023-04-24T10:19:18;37.96;30.89;44.94;;
66747;Laerm;53658;50.742;10.864;2023-04-24T10:21:44;38.04;30.89;45.04;;
66747;Laerm;53658;50.742;10.864;2023-04-24T10:24:15;38.64;30.89;53.54;;
66747;Laerm;53658;50.742;10.864;2023-04-24T10:26:42;40.60;29.92;58.63;;
66747;Laerm;53658;50.742;10.864;2023-04-24T10:29:13;39.05;30.89;55.46;;
66747;Laerm;53658;50.742;10.864;2023-04-24T10:31:41;38.61;29.92;50.23;;
66747;Laerm;53658;50.742;10.864;2023-04-24T10:34:09;40.45;30.89;58.02;;
66747;Laerm;53658;50.742;10.864;2023-04-24T10:36:40;39.43;28.67;57.15;;
66747;Laerm;53658;50.742;10.864;2023-04-24T10:39:11;37.73;29.92;45.07;;
66747;Laerm;53658;50.742;10.864;2023-04-24T10:41:38;39.53;32.35;50.69;;
66747;Laerm;53658;50.742;10.864;2023-04-24T10:44:09;38.15;30.89;47.74;;
66747;Laerm;53658;50.742;10.864;2023-04-24T10:46:37;37.56;31.33;44.35;;
66747;Laerm;53658;50.742;10.864;2023-04-24T10:49:07;40.88;32.35;60.36;;
66747;Laerm;53658;50.742;10.864;2023-04-24T10:51:51;37.95;30.89;47.30;;
66747;Laerm;53658;50.742;10.864;2023-04-24T10:54:42;39.02;30.89;48.70;;
66747;Laerm;53658;50.742;10.864;2023-04-24T11:02:38;37.84;30.89;48.21;;
66747;Laerm;53658;50.742;10.864;2023-04-24T11:05:04;38.39;30.89;56.78;;
66747;Laerm;53658;50.742;10.864;2023-04-24T11:10:38;41.88;31.68;60.97;;
66747;Laerm;53658;50.742;10.864;2023-04-24T11:13:04;39.95;30.89;62.36;;
66747;Laerm;53658;50.742;10.864;2023-04-24T11:15:30;39.92;31.68;57.49;;
66747;Laerm;53658;50.742;10.864;2023-04-24T11:17:56;40.78;30.89;61.55;;
66747;Laerm;53658;50.742;10.864;2023-04-24T11:20:23;38.35;28.67;50.87;;
66747;Laerm;53658;50.742;10.864;2023-04-24T11:22:53;38.99;31.68;51.40;;
66747;Laerm;53658;50.742;10.864;2023-04-24T11:25:23;37.96;30.54;50.05;;
66747;Laerm;53658;50.742;10.864;2023-04-24T11:28:03;37.79;29.92;50.21;;
66747;Laerm;53658;50.742;10.864;2023-04-24T11:30:31;38.81;29.92;54.09;;
66747;Laerm;53658;50.742;10.864;2023-04-24T11:33:03;40.61;31.68;61.67;;
66747;Laerm;53658;50.742;10.864;2023-04-24T11:35:29;37.84;28.67;44.62;;
66747;Laerm;53658;50.742;10.864;2023-04-24T11:38:01;37.50;31.68;48.28;;
66747;Laerm;53658;50.742;10.864;2023-04-24T11:40:28;37.31;30.89;41.82;;
66747;Laerm;53658;50.742;10.864;2023-04-24T11:42:55;38.27;32.35;50.12;;
66747;Laerm;53658;50.742;10.864;2023-04-24T11:45:26;37.48;31.33;44.54;;
66747;Laerm;53658;50.742;10.864;2023-04-24T11:47:53;37.38;32.35;41.75;;
66747;Laerm;53658;50.742;10.864;2023-04-24T11:50:21;37.39;30.89;42.98;;
66747;Laerm;53658;50.742;10.864;2023-04-24T11:52:49;38.37;32.93;49.04;;
66747;Laerm;53658;50.742;10.864;2023-04-24T11:57:46;38.90;32.35;55.48;;
66747;Laerm;53658;50.742;10.864;2023-04-24T12:00:26;40.24;31.68;55.16;;
66747;Laerm;53658;50.742;10.864;2023-04-24T12:03:05;39.09;32.35;57.47;;
66747;Laerm;53658;50.742;10.864;2023-04-24T12:05:31;38.04;32.35;44.73;;
66747;Laerm;53658;50.742;10.864;2023-04-24T12:07:58;37.75;32.35;43.44;;
66747;Laerm;53658;50.742;10.864;2023-04-24T12:10:27;38.20;32.35;44.51;;
66747;Laerm;53658;50.742;10.864;2023-04-24T12:12:55;38.53;32.35;47.22;;
66747;Laerm;53658;50.742;10.864;2023-04-24T12:15:22;39.28;32.93;55.13;;
66747;Laerm;53658;50.742;10.864;2023-04-24T12:17:51;38.77;31.68;49.33;;
66747;Laerm;53658;50.742;10.864;2023-04-24T12:20:24;39.48;32.93;59.13;;
66747;Laerm;53658;50.742;10.864;2023-04-24T12:22:56;38.15;33.44;44.76;;
66747;Laerm;53658;50.742;10.864;2023-04-24T12:25:25;38.36;32.93;44.27;;
66747;Laerm;53658;50.742;10.864;2023-04-24T12:27:55;38.13;33.90;47.18;;
66747;Laerm;53658;50.742;10.864;2023-04-24T12:30:27;39.17;34.31;53.82;;
66747;Laerm;53658;50.742;10.864;2023-04-24T12:32:58;40.81;33.44;56.50;;
66747;Laerm;53658;50.742;10.864;2023-04-24T12:35:28;40.64;33.44;58.12;;
66747;Laerm;53658;50.742;10.864;2023-04-24T12:37:54;39.17;33.44;48.54;;
66747;Laerm;53658;50.742;10.864;2023-04-24T12:40:21;38.02;33.44;42.47;;
66747;Laerm;53658;50.742;10.864;2023-04-24T12:42:49;37.93;33.44;40.71;;
66747;Laerm;53658;50.742;10.864;2023-04-24T12:45:17;38.08;33.44;43.81;;
66747;Laerm;53658;50.742;10.864;2023-04-24T12:47:44;38.39;33.90;48.74;;
66747;Laerm;53658;50.742;10.864;2023-04-24T12:50:13;38.55;33.44;46.30;;
66747;Laerm;53658;50.742;10.864;2023-04-24T12:52:39;39.04;33.90;55.60;;
66747;Laerm;53658;50.742;10.864;2023-04-24T12:55:06;39.23;32.93;48.55;;
66747;Laerm;53658;50.742;10.864;2023-04-24T12:57:37;39.16;35.66;42.29;;
66747;Laerm;53658;50.742;10.864;2023-04-24T13:00:05;40.03;36.91;44.97;;
66747;Laerm;53658;50.742;10.864;2023-04-24T13:02:33;54.07;37.70;87.35;;
66747;Laerm;53658;50.742;10.864;2023-04-24T13:04:59;41.75;37.12;58.91;;
66747;Laerm;53658;50.742;10.864;2023-04-24T13:07:26;42.85;36.20;75.74;;
66747;Laerm;53658;50.742;10.864;2023-04-24T13:09:53;39.70;34.69;52.94;;
66747;Laerm;53658;50.742;10.864;2023-04-24T13:12:19;39.50;34.69;46.82;;
66747;Laerm;53658;50.742;10.864;2023-04-24T13:14:46;40.42;33.44;64.86;;
66747;Laerm;53658;50.742;10.864;2023-04-24T13:17:12;39.48;35.36;53.14;;
66747;Laerm;53658;50.742;10.864;2023-04-24T13:19:42;39.35;35.66;59.00;;
66747;Laerm;53658;50.742;10.864;2023-04-24T13:22:12;39.58;35.04;51.77;;
66747;Laerm;53658;50.742;10.864;2023-04-24T13:24:39;39.28;33.44;49.70;;
66747;Laerm;53658;50.742;10.864;2023-04-24T13:27:08;39.25;35.36;46.07;;
66747;Laerm;53658;50.742;10.864;2023-04-24T13:29:35;39.37;35.66;43.49;;
66747;Laerm;53658;50.742;10.864;2023-04-24T13:32:01;39.22;34.69;47.42;;
66747;Laerm;53658;50.742;10.864;2023-04-24T13:34:27;39.49;35.66;43.39;;
66747;Laerm;53658;50.742;10.864;2023-04-24T13:36:54;39.98;37.52;49.62;;
66747;Laerm;53658;50.742;10.864;2023-04-24T13:39:22;40.28;38.05;49.63;;
66747;Laerm;53658;50.742;10.864;2023-04-24T13:41:48;40.28;38.05;45.23;;
66747;Laerm;53658;50.742;10.864;2023-04-24T13:44:16;40.46;38.47;43.86;;
66747;Laerm;53658;50.742;10.864;2023-04-24T13:46:44;40.58;38.18;51.05;;
66747;Laerm;53658;50.742;10.864;2023-04-24T13:49:11;40.83;37.70;51.37;;